Photometre #41[Polarized_P] Saada AOT

File : 20220828_41.hum

28/08/2022,06:48:36,TEMP=16.1,BA=5.28,STAT.A=Abs.,ExtBa=13.26
28/08/2022,06:51:40,TEMP=16.3,BA=5.16,STAT.A=Abs.,ExtBa=13.11
28/08/2022,06:55:11,TEMP=16.5,BA=5.16,STAT.A=Abs.,ExtBa=13.11
28/08/2022,06:59:21,TEMP=16.8,BA=5.16,STAT.A=Abs.,ExtBa=13.11
28/08/2022,07:04:21,TEMP=17.0,BA=5.16,STAT.A=Abs.,ExtBa=13.13
28/08/2022,07:10:29,TEMP=17.2,BA=5.36,STAT.A=Abs.,ExtBa=13.14
28/08/2022,07:18:12,TEMP=17.6,BA=5.36,STAT.B=Abs.,ExtBa=13.16
28/08/2022,07:24:46,TEMP=18.5,BA=5.20,STAT.A=Abs.,ExtBa=13.02
28/08/2022,07:26:29,TEMP=18.8,BA=5.20,STAT.A=Abs.,ExtBa=13.04
28/08/2022,07:30:33,TEMP=18.8,BA=5.36,STAT.A=Abs.,ExtBa=13.12
28/08/2022,07:35:44,TEMP=19.1,BA=5.36,STAT.A=Abs.,ExtBa=13.13
28/08/2022,07:41:39,TEMP=19.6,BA=5.40,STAT.C=Abs.,ExtBa=13.13
28/08/2022,07:54:51,TEMP=22.3,BA=5.28,STAT.A=Abs.,ExtBa=13.06
28/08/2022,07:56:39,TEMP=22.0,BA=5.28,STAT.A=Abs.,ExtBa=13.06
28/08/2022,08:05:54,TEMP=21.7,BA=5.44,STAT.A=Abs.,ExtBa=13.31
28/08/2022,08:17:15,TEMP=22.4,BA=5.44,STAT.A=Abs.,ExtBa=13.50
28/08/2022,08:31:15,TEMP=23.1,BA=5.48,STAT.B=Abs.,ExtBa=13.78
28/08/2022,08:59:54,TEMP=25.0,BA=5.48,STAT.B=Abs.,ExtBa=14.00
28/08/2022,09:06:45,TEMP=25.5,BA=5.36,STAT.D=Abs.,ExtBa=13.24
28/08/2022,09:19:34,TEMP=25.7,BA=5.48,STAT.D=Abs.,ExtBa=14.07
28/08/2022,09:34:36,TEMP=26.4,BA=5.52,STAT.F
28/08/2022,09:49:34,TEMP=27.5,BA=5.36,STAT.D=Abs.,ExtBa=13.85
28/08/2022,10:04:34,TEMP=27.1,BA=5.52,STAT.D=Abs.,ExtBa=14.28
28/08/2022,10:19:34,TEMP=27.5,BA=5.52,STAT.D=Abs.,ExtBa=14.34
28/08/2022,10:34:36,TEMP=28.3,BA=5.52,STAT.F
28/08/2022,10:49:35,TEMP=28.9,BA=5.40,STAT.D=Abs.,ExtBa=14.39
28/08/2022,11:04:35,TEMP=29.1,BA=5.52,STAT.D=Abs.,ExtBa=14.25
28/08/2022,11:19:35,TEMP=28.5,BA=5.52,STAT.D=Abs.,ExtBa=13.97
28/08/2022,11:34:36,TEMP=28.5,BA=5.48,STAT.F
28/08/2022,11:49:35,TEMP=28.2,BA=5.36,STAT.D=Abs.,ExtBa=13.61
28/08/2022,12:04:35,TEMP=28.0,BA=5.48,STAT.D=Abs.,ExtBa=13.76
28/08/2022,12:19:35,TEMP=29.3,BA=5.52,STAT.D=Abs.,ExtBa=13.92
28/08/2022,12:34:37,TEMP=29.3,BA=5.52,STAT.F
28/08/2022,12:49:35,TEMP=29.9,BA=5.52,STAT.D=Abs.,ExtBa=14.10
28/08/2022,13:04:33,TEMP=31.8,BA=5.52,STAT.D=Abs.,ExtBa=14.29
28/08/2022,13:19:33,TEMP=33.3,BA=5.52,STAT.D=Abs.,ExtBa=14.34
28/08/2022,13:34:34,TEMP=33.8,BA=5.52,STAT.F
28/08/2022,13:49:32,TEMP=33.6,BA=5.44,STAT.D=Abs.,ExtBa=14.08
28/08/2022,14:04:32,TEMP=33.0,BA=5.48,STAT.D=Abs.,ExtBa=13.94
28/08/2022,14:19:32,TEMP=33.4,BA=5.48,STAT.D=Abs.,ExtBa=14.31
28/08/2022,14:34:34,TEMP=34.9,BA=5.48,STAT.F
28/08/2022,14:49:32,TEMP=35.4,BA=5.44,STAT.D=Abs.,ExtBa=14.19
28/08/2022,15:04:32,TEMP=35.5,BA=5.48,STAT.D=Abs.,ExtBa=14.15
28/08/2022,15:19:32,TEMP=35.1,BA=5.48,STAT.D=Abs.,ExtBa=13.93
28/08/2022,15:34:33,TEMP=35.1,BA=5.48,STAT.F
28/08/2022,15:49:31,TEMP=35.3,BA=5.36,STAT.D=Abs.,ExtBa=13.43
28/08/2022,16:04:31,TEMP=33.6,BA=5.44,STAT.D=Abs.,ExtBa=13.60
28/08/2022,16:09:12,TEMP=33.5,BA=5.44,STAT.B=Abs.,ExtBa=13.48
28/08/2022,16:37:52,TEMP=33.8,BA=5.44,STAT.B=Abs.,ExtBa=13.62
28/08/2022,16:51:52,TEMP=33.2,BA=5.44,STAT.A=Abs.,ExtBa=13.45
28/08/2022,17:03:13,TEMP=32.7,BA=5.44,STAT.A=Abs.,ExtBa=13.42
28/08/2022,17:12:39,TEMP=32.3,BA=5.40,STAT.A=Abs.,ExtBa=13.40
28/08/2022,17:20:37,TEMP=32.0,BA=5.36,STAT.A=Abs.,ExtBa=13.41
28/08/2022,17:27:27,TEMP=31.8,BA=5.36,STAT.C=Abs.,ExtBa=13.39
28/08/2022,17:33:22,TEMP=31.6,BA=5.36,STAT.A=Abs.,ExtBa=13.38
28/08/2022,17:38:33,TEMP=31.6,BA=5.36,STAT.A=Abs.,ExtBa=13.38
28/08/2022,17:43:09,TEMP=31.4,BA=5.32,STAT.A=Abs.,ExtBa=13.37
28/08/2022,17:47:14,TEMP=31.4,BA=5.32,STAT.A=Abs.,ExtBa=13.36
28/08/2022,17:50:54,TEMP=31.4,BA=5.40,STAT.B=Abs.,ExtBa=13.35
28/08/2022,17:58:37,TEMP=31.6,BA=5.40,STAT.A=Abs.,ExtBa=13.30
28/08/2022,18:04:45,TEMP=31.3,BA=5.32,STAT.A=Abs.,ExtBa=13.33
28/08/2022,18:09:45,TEMP=31.0,BA=5.32,STAT.A=Abs.,ExtBa=13.34
28/08/2022,18:13:55,TEMP=30.7,BA=5.32,STAT.A=Abs.,ExtBa=13.32
28/08/2022,18:17:26,TEMP=30.4,BA=5.32,STAT.A=Abs.,ExtBa=13.32
28/08/2022,18:20:27,TEMP=30.2,BA=5.36,STAT.A=Abs.,ExtBa=13.31